Time;durP1;ratioP1;P1;durP2;ratioP2;P2;SDS_P1;SDS_P2;PMS_P1;PMS_P2;Temp;Humidity;BMP_temperature;BMP_pressure;BME280_temperature;BME280_humidity;BME280_pressure;Samples;Min_cycle;Max_cycle;Signal;HPM_P1;HPM_P2
2024/01/19 05:03:46;;;;;;;10.17;5.70;;;;;;;-5.21;100.00;100233.28;5036240;28;20045;-94
2024/01/19 05:06:14;;;;;;;9.43;5.30;;;;;;;-5.24;100.00;100225.41;5133773;22;20038;31
2024/01/19 05:08:42;;;;;;;11.10;5.50;;;;;;;-5.23;100.00;100226.28;4974426;28;20042;-88
2024/01/19 05:11:13;;;;;;;9.53;5.03;;;;;;;-5.22;100.00;100221.19;4992967;28;20056;-90
2024/01/19 05:13:43;;;;;;;11.83;5.90;;;;;;;-5.13;100.00;100224.13;4990271;28;20046;-89
2024/01/19 05:16:11;;;;;;;15.33;5.73;;;;;;;-5.01;100.00;100221.09;5000900;28;20041;-90
2024/01/19 05:18:39;;;;;;;13.20;5.47;;;;;;;-4.99;100.00;100228.88;5004936;28;20455;-88
2024/01/19 05:21:06;;;;;;;12.47;5.37;;;;;;;-4.83;100.00;100226.88;5013352;28;20053;-88
2024/01/19 05:23:33;;;;;;;12.20;5.33;;;;;;;-4.76;100.00;100230.53;5013233;28;20535;-88
2024/01/19 05:26:04;;;;;;;9.77;5.60;;;;;;;-4.78;100.00;100231.31;5013649;28;20104;-88
2024/01/19 05:28:33;;;;;;;10.53;4.53;;;;;;;-4.58;100.00;100235.44;5015270;28;20049;-89
2024/01/19 05:31:01;;;;;;;17.17;5.10;;;;;;;-4.65;100.00;100228.31;5016589;28;20133;-88
2024/01/19 05:33:31;;;;;;;9.23;4.17;;;;;;;-4.39;100.00;100239.47;5016366;28;20049;-89
2024/01/19 05:36:02;;;;;;;8.00;4.28;;;;;;;-4.39;100.00;100247.22;5002328;28;20045;-90
2024/01/19 05:38:30;;;;;;;8.97;5.00;;;;;;;-4.36;100.00;100240.47;5017621;28;20046;-88
2024/01/19 05:41:01;;;;;;;10.30;4.33;;;;;;;-4.44;100.00;100235.88;5017084;28;20037;-87
2024/01/19 05:43:29;;;;;;;9.90;4.97;;;;;;;-4.41;100.00;100235.97;5017290;28;20046;-90
2024/01/19 05:45:56;;;;;;;10.40;5.37;;;;;;;-4.31;100.00;100238.03;5033107;28;20068;-87
2024/01/19 05:48:25;;;;;;;6.97;4.27;;;;;;;-4.22;100.00;100235.72;5016817;28;20052;-87
2024/01/19 05:50:53;;;;;;;7.23;4.07;;;;;;;-4.32;100.00;100244.88;5016322;28;20038;-89
2024/01/19 05:53:21;;;;;;;9.03;4.53;;;;;;;-4.24;100.00;100237.41;5016415;28;20636;-91
2024/01/19 05:55:48;;;;;;;8.90;3.97;;;;;;;-4.08;100.00;100237.06;5016106;28;20224;-87
2024/01/19 05:58:15;;;;;;;7.00;3.87;;;;;;;-4.11;100.00;100234.41;5033739;28;20053;-87
2024/01/19 06:00:43;;;;;;;8.80;4.17;;;;;;;-4.12;100.00;100240.38;4999631;28;20061;-88
2024/01/19 06:03:13;;;;;;;12.30;4.57;;;;;;;-4.11;100.00;100244.72;5000583;28;20045;-88
2024/01/19 06:05:41;;;;;;;8.80;3.90;;;;;;;-4.19;100.00;100246.16;5017220;28;20047;-89
2024/01/19 06:08:09;;;;;;;8.17;4.10;;;;;;;-4.17;100.00;100243.63;5000618;28;20559;-88
2024/01/19 06:10:38;;;;;;;11.47;3.43;;;;;;;-4.18;100.00;100244.47;5034521;28;20109;-87
2024/01/19 06:13:06;;;;;;;6.77;3.57;;;;;;;-4.18;100.00;100249.63;5016605;28;20522;-88
2024/01/19 06:15:33;;;;;;;9.00;3.50;;;;;;;-4.20;100.00;100257.31;4983581;28;20048;-87
2024/01/19 06:18:01;;;;;;;10.00;4.03;;;;;;;-4.14;100.00;100249.75;5015803;28;20033;-88
2024/01/19 06:20:29;;;;;;;7.80;3.63;;;;;;;-4.09;100.00;100248.22;5015588;28;20111;-89
2024/01/19 06:22:56;;;;;;;5.30;3.20;;;;;;;-4.06;100.00;100247.41;5032637;28;20049;-88
2024/01/19 06:25:23;;;;;;;9.20;3.43;;;;;;;-4.15;100.00;100254.88;5015450;28;20046;-89
2024/01/19 06:27:51;;;;;;;8.77;3.90;;;;;;;-4.12;100.00;100258.44;4999591;28;20124;-90
2024/01/19 06:30:19;;;;;;;4.93;2.90;;;;;;;-4.23;100.00;100259.78;5034915;28;20045;-88
2024/01/19 06:32:47;;;;;;;5.83;3.30;;;;;;;-4.24;100.00;100260.59;5000113;28;20132;-87
2024/01/19 06:35:15;;;;;;;6.47;3.37;;;;;;;-4.19;100.00;100268.50;5033150;28;20046;-88
2024/01/19 06:37:43;;;;;;;5.70;3.33;;;;;;;-4.11;100.00;100279.94;5031669;28;20460;-86
2024/01/19 06:40:11;;;;;;;6.23;3.13;;;;;;;-4.20;100.00;100277.03;5015251;28;20501;-87
2024/01/19 06:42:38;;;;;;;9.10;3.50;;;;;;;-4.17;100.00;100280.63;4998684;28;20044;-90
2024/01/19 06:45:05;;;;;;;6.07;3.30;;;;;;;-4.14;100.00;100279.84;4998995;28;20444;-87
2024/01/19 06:47:33;;;;;;;6.77;3.47;;;;;;;-4.17;100.00;100279.75;5014868;28;20041;-87
2024/01/19 06:50:01;;;;;;;7.37;3.60;;;;;;;-4.20;100.00;100279.63;5014277;28;20037;-88
2024/01/19 06:52:28;;;;;;;6.63;3.50;;;;;;;-4.13;100.00;100284.16;5031191;28;20048;-88
2024/01/19 06:54:55;;;;;;;9.17;3.80;;;;;;;-4.14;100.00;100297.88;4998855;28;20104;-87
2024/01/19 06:57:22;;;;;;;12.17;4.10;;;;;;;-4.08;100.00;100304.13;5014689;28;20041;-87
2024/01/19 06:59:50;;;;;;;8.13;4.00;;;;;;;-3.99;100.00;100293.22;4982343;28;20042;-88
2024/01/19 07:02:18;;;;;;;21.93;11.13;;;;;;;-4.03;100.00;100293.97;5015173;28;20041;-89
2024/01/19 07:04:45;;;;;;;14.30;7.23;;;;;;;-4.13;100.00;100291.91;5014401;28;20312;-88
2024/01/19 07:07:12;;;;;;;10.90;4.73;;;;;;;-4.12;100.00;100297.13;5013228;28;20045;-88
2024/01/19 07:09:39;;;;;;;10.13;4.17;;;;;;;-4.05;100.00;100298.19;5014252;28;20057;-91
2024/01/19 07:12:07;;;;;;;12.13;7.20;;;;;;;-4.07;100.00;100308.47;4997938;28;20045;-87
2024/01/19 07:14:34;;;;;;;10.90;6.70;;;;;;;-4.08;100.00;100306.72;4982023;28;20135;-89
2024/01/19 07:17:02;;;;;;;14.50;7.57;;;;;;;-4.10;100.00;100313.53;5013724;28;20053;-88
2024/01/19 07:19:32;;;;;;;12.03;7.07;;;;;;;-4.07;100.00;100313.63;4997339;28;20037;-87
2024/01/19 07:21:59;;;;;;;7.00;4.13;;;;;;;-4.02;100.00;100318.94;4993660;28;20049;-88
2024/01/19 07:24:32;;;;;;;7.73;4.30;;;;;;;-3.99;100.00;100309.59;5030433;28;20049;-90
2024/01/19 07:26:59;;;;;;;9.10;3.90;;;;;;;-3.90;100.00;100326.19;4998354;28;20084;-88
2024/01/19 07:29:26;;;;;;;6.43;4.10;;;;;;;-4.00;100.00;100325.91;4997337;28;20048;-91
2024/01/19 07:31:55;;;;;;;6.50;3.40;;;;;;;-4.03;100.00;100323.22;5013433;28;20144;-88
2024/01/19 07:34:22;;;;;;;7.23;3.60;;;;;;;-3.94;100.00;100329.50;5013661;28;20084;-89
2024/01/19 07:36:49;;;;;;;8.90;5.07;;;;;;;-3.85;100.00;100325.53;5025751;28;20088;-87
2024/01/19 07:39:23;;;;;;;7.93;3.70;;;;;;;-3.81;100.00;100332.50;5007557;28;20038;-90
2024/01/19 07:41:51;;;;;;;8.68;3.80;;;;;;;-3.66;100.00;100332.13;4982021;28;20107;-89
2024/01/19 07:44:19;;;;;;;7.83;4.47;;;;;;;-3.54;100.00;100329.03;5030855;28;20053;-87
2024/01/19 07:46:46;;;;;;;6.97;3.60;;;;;;;-3.59;100.00;100330.63;4997122;28;20110;-87
2024/01/19 07:49:20;;;;;;;8.17;4.30;;;;;;;-3.57;100.00;100324.66;4997239;28;20045;-89
2024/01/19 07:51:49;;;;;;;13.40;11.43;;;;;;;-3.46;100.00;100319.81;4997498;28;20416;-90
2024/01/19 07:54:17;;;;;;;15.73;9.53;;;;;;;-3.60;100.00;100342.66;4997656;28;20054;-89
2024/01/19 07:56:45;;;;;;;10.43;4.63;;;;;;;-3.53;100.00;100335.94;4997405;28;20053;-89
2024/01/19 07:59:13;;;;;;;6.63;4.17;;;;;;;-3.45;100.00;100340.56;4996686;28;20042;-89
